Time;durP1;ratioP1;P1;durP2;ratioP2;P2;SDS_P1;SDS_P2;PMS_P1;PMS_P2;Temp;Humidity;BMP_temperature;BMP_pressure;BME280_temperature;BME280_humidity;BME280_pressure;Samples;Min_cycle;Max_cycle;Signal;HPM_P1;HPM_P2
2022/02/08 00:00:54;;;;;;;;;45.00;42.00;;;;;6.18;96.31;100182.53;6307314;22;11593;-71
2022/02/08 00:03:50;;;;;;;;;42.00;40.00;;;;;6.21;96.58;100175.59;6307209;22;11513;-72
2022/02/08 00:06:47;;;;;;;;;46.50;43.00;;;;;6.26;96.14;100183.69;6306884;22;11737;-71
2022/02/08 00:09:42;;;;;;;;;38.25;37.75;;;;;6.24;96.33;100181.28;6307153;22;11491;-71
2022/02/08 00:12:38;;;;;;;;;42.00;39.75;;;;;6.17;96.79;100171.88;6307216;22;11504;-71
2022/02/08 00:15:34;;;;;;;;;36.75;36.00;;;;;6.17;96.64;100174.59;6306877;22;11517;-71
2022/02/08 00:18:29;;;;;;;;;46.50;39.75;;;;;6.25;96.45;100176.59;6306829;22;11610;-71
2022/02/08 00:21:25;;;;;;;;;41.75;37.25;;;;;6.23;96.37;100184.34;6306736;22;11685;-71
2022/02/08 00:24:21;;;;;;;;;43.25;40.25;;;;;6.14;96.93;100178.81;6308291;22;12253;-71
2022/02/08 00:27:16;;;;;;;;;41.50;40.00;;;;;6.07;97.08;100178.44;6306868;22;11519;-72
2022/02/08 00:30:12;;;;;;;;;40.75;37.00;;;;;6.03;97.61;100170.00;6306612;22;11550;-71
2022/02/08 00:33:08;;;;;;;;;40.50;39.50;;;;;6.13;97.28;100168.91;6306887;22;11600;-71
2022/02/08 00:36:04;;;;;;;;;46.75;41.25;;;;;6.15;96.99;100168.63;6324283;22;12226;-71
2022/02/08 00:39:00;;;;;;;;;34.75;33.50;;;;;6.09;97.59;100167.94;6306703;22;11480;-71
2022/02/08 00:42:04;;;;;;;;;15.00;14.75;;;;;6.09;97.47;100159.69;6306664;22;12348;-71
2022/02/08 00:45:52;;;;;;;;;43.00;40.25;;;;;6.06;97.87;100160.34;6306752;22;11575;-71
2022/02/08 00:48:17;;;;;;;;;42.50;34.75;;;;;6.12;97.35;100164.56;6306762;22;11546;-71
2022/02/08 00:51:13;;;;;;;;;35.00;35.00;;;;;6.18;97.22;100159.75;6306448;22;11505;-71
2022/02/08 00:54:10;;;;;;;;;38.25;35.75;;;;;6.11;97.40;100169.22;6307035;22;11625;-70
2022/02/08 00:57:06;;;;;;;;;38.75;38.00;;;;;6.15;97.47;100163.94;6306558;22;11519;-70
2022/02/08 01:00:04;;;;;;;;;37.00;36.75;;;;;6.13;96.99;100163.44;6306236;22;12351;-70
2022/02/08 01:03:00;;;;;;;;;39.75;37.75;;;;;6.12;97.61;100168.09;6306642;22;11526;-70
2022/02/08 01:06:04;;;;;;;;;41.00;39.75;;;;;6.17;96.80;100169.13;6306313;22;11571;-71
2022/02/08 01:09:16;;;;;;;;;47.50;42.75;;;;;6.00;98.26;100167.06;6306519;22;12265;-71
2022/02/08 01:12:13;;;;;;;;;38.50;38.50;;;;;6.03;97.71;100158.19;6306135;22;11537;-70
2022/02/08 01:15:09;;;;;;;;;36.00;34.50;;;;;6.00;98.25;100156.09;6306896;22;11645;-70
2022/02/08 01:18:06;;;;;;;;;45.75;41.75;;;;;5.91;98.55;100166.22;6306391;22;11521;-70
2022/02/08 01:21:01;;;;;;;;;47.75;43.50;;;;;5.93;98.84;100150.25;6306034;22;12264;-70
2022/02/08 01:23:58;;;;;;;;;32.75;32.75;;;;;6.00;98.45;100151.41;6306522;22;11613;-71
2022/02/08 01:27:02;;;;;;;;;45.75;41.00;;;;;6.06;98.48;100152.91;6306361;22;11511;-71
2022/02/08 01:30:00;;;;;;;;;44.50;40.25;;;;;5.98;98.13;100147.34;6323886;22;11544;-71
2022/02/08 01:51:40;;;;;;;;;33.00;33.00;;;;;5.99;98.67;100169.00;6306021;22;11529;-70
2022/02/08 01:54:35;;;;;;;;;43.25;39.00;;;;;5.99;98.90;100174.50;6306428;22;11508;-71
2022/02/08 01:57:31;;;;;;;;;37.25;36.75;;;;;5.89;99.48;100173.91;6306277;22;11608;-71
2022/02/08 02:00:28;;;;;;;;;44.75;42.00;;;;;5.92;99.28;100167.84;6306065;22;11513;-71
2022/02/08 02:03:24;;;;;;;;;36.75;35.50;;;;;5.77;100.00;100167.03;6306118;22;12110;-71
2022/02/08 02:06:19;;;;;;;;;36.25;35.75;;;;;5.93;99.63;100170.25;6306038;22;11605;-70
2022/02/08 02:09:15;;;;;;;;;36.00;34.25;;;;;5.92;99.66;100176.88;6306270;22;11611;-70
2022/02/08 02:12:12;;;;;;;;;34.00;32.50;;;;;6.02;99.16;100173.88;6306041;22;11625;-70
2022/02/08 02:15:08;;;;;;;;;39.00;37.75;;;;;5.90;98.93;100170.03;6306230;22;11501;-70
2022/02/08 02:18:03;;;;;;;;;50.75;43.00;;;;;5.91;98.98;100177.19;6306195;22;11503;-70
2022/02/08 02:20:59;;;;;;;;;40.00;39.50;;;;;5.79;99.63;100181.25;6306083;22;11532;-70
2022/02/08 02:23:55;;;;;;;;;45.25;41.00;;;;;5.84;99.66;100183.88;6307644;22;11571;-72
2022/02/08 02:26:51;;;;;;;;;38.75;36.50;;;;;5.74;99.94;100177.81;6307941;22;11493;-71
2022/02/08 02:29:46;;;;;;;;;39.25;39.00;;;;;5.77;99.70;100177.22;6308095;22;12220;-70
2022/02/08 02:32:42;;;;;;;;;39.75;39.00;;;;;5.73;100.00;100179.75;6307552;22;11546;-70
2022/02/08 02:35:38;;;;;;;;;37.25;35.25;;;;;5.79;100.00;100177.69;6308088;22;11618;-71
2022/02/08 02:38:34;;;;;;;;;44.75;42.00;;;;;5.84;99.92;100170.16;6307961;22;11553;-70
2022/02/08 02:41:19;;;;;;;;;31.50;28.50;;;;;5.76;100.00;100179.16;6317251;22;11515;-71
2022/02/08 02:44:18;;;;;;;;;36.00;33.75;;;;;5.77;100.00;100175.28;6307864;22;11521;-71
2022/02/08 02:47:14;;;;;;;;;31.00;30.25;;;;;5.72;100.00;100172.66;6305560;22;11503;-71
2022/02/08 02:50:10;;;;;;;;;44.25;40.25;;;;;5.69;100.00;100170.53;6307930;22;11548;-71
2022/02/08 02:53:06;;;;;;;;;36.50;36.50;;;;;5.62;100.00;100172.09;6307505;22;11492;-71
2022/02/08 02:56:02;;;;;;;;;34.75;32.50;;;;;5.61;100.00;100173.22;6307638;22;12380;-71
2022/02/08 02:59:02;;;;;;;;;33.50;33.00;;;;;5.58;100.00;100171.88;6307793;22;11498;-70
2022/02/08 03:05:35;;;;;;;;;41.75;36.00;;;;;5.52;100.00;100178.59;6307487;22;11522;-70
2022/02/08 03:18:27;;;;;;;;;39.00;38.25;;;;;5.48;100.00;100183.09;6307372;22;11499;-70
2022/02/08 03:21:14;;;;;;;;;35.75;35.50;;;;;5.41;100.00;100177.22;6307532;22;11606;-70
2022/02/08 03:24:10;;;;;;;;;40.75;39.75;;;;;5.46;100.00;100185.34;6307623;22;11587;-70
2022/02/08 03:27:05;;;;;;;;;38.00;36.00;;;;;5.43;100.00;100181.28;6308497;22;11508;-70
2022/02/08 03:30:02;;;;;;;;;37.25;37.25;;;;;5.45;100.00;100186.47;6307487;22;11532;-70
2022/02/08 03:32:57;;;;;;;;;39.25;37.25;;;;;5.46;100.00;100185.34;6306991;22;12199;-70
2022/02/08 03:35:55;;;;;;;;;31.50;29.50;;;;;5.42;100.00;100181.59;6306739;22;11515;-70
2022/02/08 03:39:07;;;;;;;;;44.75;40.75;;;;;5.34;100.00;100187.78;6307436;22;11607;-70
2022/02/08 03:42:15;;;;;;;;;44.75;41.25;;;;;5.26;100.00;100181.09;6307322;22;12202;-70
2022/02/08 03:45:13;;;;;;;;;27.75;26.50;;;;;5.09;100.00;100189.97;6307207;22;11515;-70
2022/02/08 03:48:10;;;;;;;;;42.25;38.00;;;;;5.08;100.00;100190.28;6307170;22;11479;-70
2022/02/08 03:51:15;;;;;;;;;37.25;36.50;;;;;5.10;100.00;100188.84;6307251;22;10992;-70
2022/02/08 03:54:11;;;;;;;;;41.00;39.75;;;;;5.07;100.00;100191.41;6307578;22;11513;-70
2022/02/08 03:57:09;;;;;;;;;43.50;41.25;;;;;5.02;100.00;100189.56;6307132;22;11494;-70
2022/02/08 04:00:06;;;;;;;;;41.00;40.00;;;;;5.06;100.00;100192.50;6307094;22;11531;-70
2022/02/08 04:03:01;;;;;;;;;45.50;42.25;;;;;5.06;100.00;100203.47;6306824;22;11489;-71
2022/02/08 04:05:59;;;;;;;;;43.00;40.75;;;;;5.14;100.00;100194.56;6306692;22;11482;-70
2022/02/08 04:08:57;;;;;;;;;53.00;45.50;;;;;5.12;100.00;100196.75;6307068;22;11496;-71
2022/02/08 04:12:00;;;;;;;;;49.00;45.00;;;;;5.13;100.00;100203.88;6306918;22;11552;-70
2022/02/08 04:34:23;;;;;;;;;66.25;56.50;;;;;5.24;100.00;100192.38;6306583;22;11550;-70
2022/02/08 04:49:23;;;;;;;;;52.75;45.25;;;;;5.34;100.00;100182.31;6306504;22;12331;-70
2022/02/08 04:52:20;;;;;;;;;47.50;44.75;;;;;5.23;100.00;100182.56;6306474;22;11498;-70
2022/02/08 04:58:26;;;;;;;;;62.75;51.25;;;;;5.21;100.00;100193.03;6306587;22;11482;-70
2022/02/08 05:01:36;;;;;;;;;50.50;45.75;;;;;5.20;100.00;100185.06;6306595;22;11561;-70
2022/02/08 05:43:06;;;;;;;;;45.25;42.25;;;;;5.05;100.00;100229.25;6306616;22;11510;-71
2022/02/08 05:49:10;;;;;;;;;55.75;45.00;;;;;5.00;100.00;100239.22;6304936;22;12317;-70
2022/02/08 05:52:32;;;;;;;;;47.00;39.75;;;;;5.11;100.00;100242.56;6322466;22;11512;-70
2022/02/08 05:55:27;;;;;;;;;40.25;37.75;;;;;5.12;100.00;100254.31;6305063;22;11536;-70
2022/02/08 05:58:24;;;;;;;;;63.75;52.25;;;;;5.16;100.00;100252.63;6306104;22;11558;-70
2022/02/08 06:01:20;;;;;;;;;90.00;71.67;;;;;5.13;100.00;100255.94;6306796;22;12279;-70
2022/02/08 06:04:16;;;;;;;;;72.67;55.33;;;;;5.10;100.00;100260.13;6306622;22;8832;-70
2022/02/08 06:07:19;;;;;;;;;87.67;69.67;;;;;5.23;100.00;100264.78;6306667;22;8815;-70
2022/02/08 06:10:15;;;;;;;;;69.33;58.67;;;;;5.20;100.00;100259.91;6306773;22;8906;-70
2022/02/08 06:13:10;;;;;;;;;67.00;57.00;;;;;5.19;100.00;100271.19;6306529;22;11504;-70
2022/02/08 06:16:11;;;;;;;;;56.00;45.50;;;;;5.20;100.00;100275.53;6306551;22;12310;-70
2022/02/08 06:19:07;;;;;;;;;62.00;50.75;;;;;5.26;100.00;100277.88;6306679;22;11600;-70
2022/02/08 06:22:03;;;;;;;;;60.75;48.75;;;;;5.27;100.00;100281.44;6306351;22;11536;-70
2022/02/08 06:24:59;;;;;;;;;55.25;48.25;;;;;5.31;100.00;100282.47;6305987;22;11516;-70
2022/02/08 06:27:54;;;;;;;;;61.75;51.50;;;;;5.24;100.00;100271.91;6306550;22;11513;-70
2022/02/08 06:30:51;;;;;;;;;55.50;48.00;;;;;5.52;100.00;100280.09;6307338;22;11494;-74
2022/02/08 06:33:47;;;;;;;;;49.50;45.75;;;;;5.62;100.00;100285.38;6307393;22;11499;-74
2022/02/08 06:36:43;;;;;;;;;56.25;46.25;;;;;5.71;100.00;100293.69;6307511;22;11517;-75
2022/02/08 06:39:38;;;;;;;;;59.25;51.25;;;;;5.76;100.00;100282.59;6307456;22;11576;-74
2022/02/08 06:42:09;;;;;;;;;81.00;64.67;;;;;5.84;100.00;100288.16;6316659;22;11515;-74
2022/02/08 06:44:37;;;;;;;;;123.67;108.33;;;;;5.71;100.00;100278.03;6306273;22;11536;-73
2022/02/08 06:47:33;;;;;;;;;131.33;118.00;;;;;5.89;100.00;100283.66;6306686;22;8821;-73
2022/02/08 06:50:20;;;;;;;;;128.67;114.33;;;;;6.01;100.00;100284.78;6306920;22;8858;-73
2022/02/08 06:53:15;;;;;;;;;89.33;70.33;;;;;6.11;100.00;100283.72;6307645;22;8916;-73
2022/02/08 06:56:11;;;;;;;;;76.00;61.75;;;;;6.02;100.00;100293.84;6307062;22;8791;-73
2022/02/08 06:59:09;;;;;;;;;74.75;60.50;;;;;6.07;100.00;100293.72;6306684;22;11622;-72
2022/02/08 07:02:05;;;;;;;;;85.33;66.33;;;;;6.04;100.00;100289.66;6307642;22;11519;-72
2022/02/08 07:05:01;;;;;;;;;79.33;61.00;;;;;5.96;100.00;100290.38;6307311;22;12205;-74
2022/02/08 07:07:56;;;;;;;;;102.00;87.00;;;;;5.95;100.00;100312.66;6307148;22;11492;-75
2022/02/08 07:10:53;;;;;;;;;231.50;186.75;;;;;5.93;100.00;100301.19;6307699;22;8811;-75
2022/02/08 07:13:49;;;;;;;;;108.67;90.67;;;;;6.05;100.00;100306.94;6307432;22;8777;-74
2022/02/08 07:16:45;;;;;;;;;81.00;65.33;;;;;6.28;100.00;100311.31;6307769;22;8872;-74
2022/02/08 07:19:41;;;;;;;;;60.50;51.75;;;;;6.20;100.00;100306.56;6307008;22;11662;-75
2022/02/08 07:22:37;;;;;;;;;62.25;52.25;;;;;6.20;100.00;100309.31;6306935;22;11511;-74
2022/02/08 07:25:32;;;;;;;;;66.25;55.50;;;;;6.08;100.00;100309.88;6307164;22;11559;-74
2022/02/08 07:28:28;;;;;;;;;64.75;49.75;;;;;6.02;100.00;100313.88;6307559;22;11542;-76
2022/02/08 07:31:33;;;;;;;;;63.50;53.00;;;;;6.01;100.00;100315.00;6306956;22;12368;-76
2022/02/08 07:34:38;;;;;;;;;67.00;55.00;;;;;6.09;100.00;100308.75;6307037;22;12212;-74
2022/02/08 07:37:46;;;;;;;;;74.50;60.50;;;;;6.08;100.00;100309.88;6306676;22;11584;-75
2022/02/08 07:41:35;;;;;;;;;72.50;58.50;;;;;6.29;100.00;100318.47;6307120;22;11619;-74
2022/02/08 07:43:57;;;;;;;;;73.25;59.75;;;;;6.37;100.00;100323.22;6306849;22;12214;-74
2022/02/08 07:46:52;;;;;;;;;76.50;60.00;;;;;6.45;100.00;100318.91;6306465;22;11558;-75
2022/02/08 07:49:48;;;;;;;;;82.75;66.50;;;;;6.34;100.00;100323.00;6324676;22;11517;-75
2022/02/08 07:52:44;;;;;;;;;80.25;62.50;;;;;6.31;100.00;100313.47;6304913;22;11543;-76
2022/02/08 07:55:40;;;;;;;;;77.00;62.25;;;;;6.37;100.00;100320.47;6324577;22;11617;-76
2022/02/08 07:58:36;;;;;;;;;74.00;60.00;;;;;6.26;100.00;100321.00;6306836;22;11537;-76
2022/02/08 08:01:32;;;;;;;;;79.50;62.75;;;;;6.34;100.00;100317.50;6306835;22;11545;-76
2022/02/08 08:04:27;;;;;;;;;77.00;62.00;;;;;6.43;100.00;100325.81;6306485;22;11535;-70
2022/02/08 08:07:24;;;;;;;;;85.00;66.00;;;;;6.42;100.00;100322.25;6306673;22;12280;-69
2022/02/08 08:10:22;;;;;;;;;85.00;67.67;;;;;6.29;100.00;100326.72;6306705;22;11555;-69
2022/02/08 08:13:19;;;;;;;;;93.00;79.00;;;;;6.38;100.00;100324.03;6306126;22;8771;-68
2022/02/08 08:19:37;;;;;;;;;95.67;75.33;;;;;6.42;100.00;100327.75;6286513;22;8791;-68
2022/02/08 08:22:33;;;;;;;;;86.33;68.33;;;;;6.40;100.00;100330.00;6306500;22;11583;-71
2022/02/08 08:25:29;;;;;;;;;77.00;59.75;;;;;6.46;100.00;100336.19;6306704;22;11525;-69
2022/02/08 08:28:25;;;;;;;;;76.00;61.25;;;;;6.46;100.00;100337.00;6306702;22;11535;-69
2022/02/08 08:31:21;;;;;;;;;64.75;53.75;;;;;6.63;100.00;100341.81;6306668;22;11496;-70
2022/02/08 08:34:16;;;;;;;;;67.25;56.25;;;;;6.52;100.00;100345.94;6306676;22;11521;-69
2022/02/08 08:37:12;;;;;;;;;70.25;56.00;;;;;6.55;100.00;100350.81;6304431;22;11607;-68
2022/02/08 08:40:20;;;;;;;;;70.25;56.50;;;;;6.53;100.00;100344.81;6306300;22;11528;-69
2022/02/08 08:43:26;;;;;;;;;71.25;56.50;;;;;6.55;100.00;100348.88;6306584;22;11639;-69
2022/02/08 08:49:51;;;;;;;;;64.00;53.75;;;;;6.55;100.00;100348.06;6305396;22;11511;-70
2022/02/08 08:52:50;;;;;;;;;59.25;50.00;;;;;6.61;100.00;100349.56;6306247;22;11522;-69
2022/02/08 08:55:46;;;;;;;;;58.75;48.25;;;;;6.72;100.00;100344.63;6306138;22;11505;-69
2022/02/08 08:58:44;;;;;;;;;66.25;53.50;;;;;6.75;100.00;100346.72;6323613;22;11522;-69
2022/02/08 09:01:40;;;;;;;;;74.00;59.50;;;;;6.83;100.00;100341.31;6306273;22;11577;-70
2022/02/08 09:04:40;;;;;;;;;75.50;60.50;;;;;6.85;100.00;100336.28;6305577;22;11512;-70
2022/02/08 09:07:38;;;;;;;;;57.75;49.00;;;;;6.94;100.00;100328.09;6306091;22;11557;-68
2022/02/08 09:10:46;;;;;;;;;78.00;61.50;;;;;6.88;100.00;100324.66;6306111;22;11520;-70
2022/02/08 09:14:37;;;;;;;;;70.25;58.25;;;;;6.97;100.00;100330.19;6305987;22;11504;-71
2022/02/08 09:17:50;;;;;;;;;78.50;60.25;;;;;6.95;100.00;100335.22;6305200;22;11594;-70
2022/02/08 09:29:49;;;;;;;;;85.67;68.33;;;;;7.10;99.44;100329.31;6305774;22;11551;-71
2022/02/08 09:32:53;;;;;;;;;91.33;75.67;;;;;7.13;100.00;100333.34;6306702;22;11697;-70
2022/02/08 09:35:49;;;;;;;;;91.00;74.67;;;;;7.15;100.00;100334.69;6308242;22;11527;-70
2022/02/08 09:38:45;;;;;;;;;94.00;77.67;;;;;7.22;99.69;100339.72;6308558;22;11546;-71
2022/02/08 09:41:14;;;;;;;;;92.33;73.00;;;;;7.26;99.95;100343.44;6317209;22;11549;-70
2022/02/08 09:44:11;;;;;;;;;88.00;69.50;;;;;7.20;100.00;100345.53;6308356;22;11539;-69
2022/02/08 09:47:15;;;;;;;;;86.50;69.00;;;;;7.25;99.31;100341.84;6308229;22;12298;-68
2022/02/08 09:50:22;;;;;;;;;99.67;87.67;;;;;7.21;99.01;100341.66;6308214;22;11579;-70
2022/02/08 09:53:24;;;;;;;;;111.33;93.33;;;;;7.24;99.37;100349.28;6308205;22;8791;-70
2022/02/08 09:56:22;;;;;;;;;113.67;100.00;;;;;7.28;99.88;100343.94;6307655;22;8803;-70
2022/02/08 09:59:18;;;;;;;;;125.00;108.00;;;;;7.24;99.95;100343.78;6308152;22;8787;-70
2022/02/08 10:02:19;;;;;;;;;130.67;108.67;;;;;7.16;100.00;100341.81;6308010;22;8788;-70
2022/02/08 10:05:14;;;;;;;;;117.00;107.33;;;;;7.08;100.00;100339.00;6307776;22;9594;-70
2022/02/08 10:08:11;;;;;;;;;125.33;110.67;;;;;7.10;100.00;100334.00;6307285;22;8800;-71
2022/02/08 10:10:42;;;;;;;;;123.00;101.00;;;;;7.13;100.00;100327.84;6316604;22;8803;-70
2022/02/08 10:20:47;;;;;;;;;128.00;114.33;;;;;7.02;100.00;100330.06;6307343;22;9491;-71
2022/02/08 10:23:17;;;;;;;;;130.67;112.00;;;;;6.94;100.00;100328.09;6307708;22;8795;-69
2022/02/08 10:26:22;;;;;;;;;123.00;105.33;;;;;6.99;100.00;100332.66;6307085;22;8833;-70
2022/02/08 10:29:24;;;;;;;;;105.33;91.00;;;;;7.09;100.00;100338.69;6307491;22;8890;-70
2022/02/08 10:38:50;;;;;;;;;119.00;96.33;;;;;7.09;100.00;100330.44;6307659;22;8799;-71
2022/02/08 10:41:49;;;;;;;;;98.67;84.67;;;;;7.00;100.00;100339.78;6306796;22;8783;-71
2022/02/08 10:44:44;;;;;;;;;74.25;56.50;;;;;7.20;99.69;100340.03;6307021;22;8803;-71
2022/02/08 10:47:41;;;;;;;;;94.00;71.00;;;;;7.06;100.00;100344.03;6306540;22;11725;-70
2022/02/08 10:50:41;;;;;;;;;85.00;66.25;;;;;6.95;99.88;100340.72;6306926;22;11531;-69
2022/02/08 10:53:50;;;;;;;;;87.00;66.25;;;;;6.79;100.00;100334.00;6307332;22;11532;-68
2022/02/08 10:56:50;;;;;;;;;92.33;73.00;;;;;6.68;100.00;100330.69;6305106;22;11538;-68
2022/02/08 11:00:00;;;;;;;;;88.25;67.00;;;;;6.69;100.00;100324.88;6307494;22;11582;-68
2022/02/08 11:02:59;;;;;;;;;90.33;71.67;;;;;6.80;100.00;100325.44;6307673;22;11538;-67
2022/02/08 11:09:45;;;;;;;;;101.00;83.00;;;;;6.59;100.00;100327.06;6307188;22;11527;-69
2022/02/08 11:12:43;;;;;;;;;102.67;89.00;;;;;6.59;100.00;100330.63;6307263;22;9654;-68
2022/02/08 11:18:42;;;;;;;;;100.67;76.00;;;;;6.61;100.00;100327.59;6307213;22;9565;-68
2022/02/08 11:21:55;;;;;;;;;99.00;81.00;;;;;6.63;100.00;100330.81;6307121;22;8810;-67
2022/02/08 11:24:57;;;;;;;;;95.67;81.00;;;;;6.58;100.00;100333.69;6307010;22;9514;-68
2022/02/08 11:28:04;;;;;;;;;102.00;81.33;;;;;6.71;100.00;100346.56;6307193;22;8842;-68
2022/02/08 11:47:20;;;;;;;;;105.00;88.67;;;;;6.40;100.00;100372.03;6306616;22;8776;-68
2022/02/08 11:53:59;;;;;;;;;138.67;107.00;;;;;6.50;100.00;100373.69;6306994;22;8819;-68
2022/02/08 12:00:18;;;;;;;;;111.67;99.33;;;;;6.24;100.00;100380.94;6306957;22;8801;-68
2022/02/08 12:06:40;;;;;;;;;121.00;98.33;;;;;6.25;100.00;100385.28;6306194;22;8792;-68
2022/02/08 12:32:31;;;;;;;;;78.25;58.25;;;;;6.07;100.00;100404.34;6306140;22;11547;-69
2022/02/08 12:58:14;;;;;;;;;82.25;66.75;;;;;6.29;100.00;100466.78;6305757;22;11521;-70
2022/02/08 13:05:06;;;;;;;;;84.25;66.50;;;;;6.36;100.00;100469.91;6293892;22;11635;-76
2022/02/08 14:06:16;;;;;;;;;73.00;59.00;;;;;5.28;100.00;100557.25;6305495;22;11519;-74
2022/02/08 14:18:40;;;;;;;;;82.33;66.67;;;;;5.30;100.00;100574.25;6306362;22;8779;-76
2022/02/08 14:21:51;;;;;;;;;88.33;69.33;;;;;5.32;100.00;100576.69;6307986;22;8804;-75
2022/02/08 14:24:50;;;;;;;;;76.33;62.33;;;;;5.45;100.00;100564.97;6307795;22;8814;-74
2022/02/08 15:09:56;;;;;;;;;72.67;58.00;;;;;4.45;100.00;100619.78;6306859;22;12260;-74
2022/02/08 15:12:58;;;;;;;;;41.25;38.00;;;;;4.40;100.00;100614.34;6307342;22;11670;-74
2022/02/08 15:19:04;;;;;;;;;79.67;62.67;;;;;4.10;100.00;100612.78;6307282;22;12309;-75
2022/02/08 15:22:01;;;;;;;;;70.67;55.33;;;;;4.11;100.00;100614.41;6324770;22;9478;-74
2022/02/08 15:24:59;;;;;;;;;70.67;56.33;;;;;3.84;100.00;100614.13;6306672;22;11634;-74
2022/02/08 15:28:00;;;;;;;;;73.67;58.00;;;;;3.82;100.00;100613.59;6304798;22;11497;-75
2022/02/08 15:30:58;;;;;;;;;64.00;49.67;;;;;3.71;100.00;100615.59;6304971;22;12251;-76
2022/02/08 15:33:56;;;;;;;;;92.67;68.67;;;;;3.92;100.00;100624.47;6306148;22;8799;-75
2022/02/08 15:36:52;;;;;;;;;28.33;19.00;;;;;3.77;100.00;100635.53;6306680;22;8768;-74
2022/02/08 15:39:50;;;;;;;;;64.00;56.00;;;;;3.67;100.00;100632.88;6307212;22;8775;-73
2022/02/08 15:42:48;;;;;;;;;88.67;71.33;;;;;3.75;100.00;100632.25;6306916;22;8834;-73
2022/02/08 15:45:54;;;;;;;;;69.67;58.33;;;;;3.72;100.00;100644.59;6306872;22;8807;-74
2022/02/08 15:48:52;;;;;;;;;59.67;49.00;;;;;3.80;100.00;100651.38;6307138;22;8780;-73
2022/02/08 15:51:56;;;;;;;;;86.67;68.33;;;;;3.60;100.00;100647.69;6307162;22;8771;-71
2022/02/08 15:54:53;;;;;;;;;70.33;55.33;;;;;3.46;100.00;100645.91;6306867;22;8784;-73
2022/02/08 15:58:04;;;;;;;;;63.33;52.33;;;;;3.50;100.00;100661.44;6306724;22;8793;-73
2022/02/08 16:01:06;;;;;;;;;82.00;65.33;;;;;3.55;100.00;100663.31;6307271;22;8803;-73
2022/02/08 16:07:25;;;;;;;;;74.00;61.33;;;;;3.72;100.00;100674.69;6306990;22;11559;-74
2022/02/08 16:10:29;;;;;;;;;64.33;51.33;;;;;3.52;100.00;100672.91;6305983;22;8878;-74
2022/02/08 16:14:16;;;;;;;;;70.67;59.00;;;;;3.81;100.00;100669.41;6306422;22;11628;-75
2022/02/08 16:26:36;;;;;;;;;66.33;50.67;;;;;3.70;100.00;100689.75;6306178;22;11530;-74
2022/02/08 16:46:09;;;;;;;;;72.00;60.67;;;;;3.55;100.00;100683.28;6306497;22;8783;-73
2022/02/08 16:49:20;;;;;;;;;63.67;53.00;;;;;3.50;100.00;100688.78;6306329;22;11616;-73
2022/02/08 16:58:51;;;;;;;;;69.67;56.00;;;;;3.48;100.00;100699.19;6306153;22;11592;-71
2022/02/08 17:01:47;;;;;;;;;72.00;54.33;;;;;3.40;100.00;100702.53;6304322;22;8787;-72
2022/02/08 17:04:43;;;;;;;;;70.67;58.33;;;;;3.40;100.00;100696.25;6306726;22;11562;-74
2022/02/08 17:07:39;;;;;;;;;82.33;64.67;;;;;3.42;100.00;100707.69;6306721;22;8878;-73
2022/02/08 17:10:39;;;;;;;;;83.33;63.67;;;;;3.37;100.00;100708.53;6306660;22;8783;-73
2022/02/08 17:17:18;;;;;;;;;85.00;65.67;;;;;3.27;100.00;100723.09;6304775;22;8815;-72
2022/02/08 17:46:18;;;;;;;;;109.00;84.00;;;;;3.25;100.00;100754.53;6305260;22;8767;-73
2022/02/08 17:49:14;;;;;;;;;106.00;80.00;;;;;3.26;100.00;100750.72;6306070;22;8988;-72
2022/02/08 17:52:09;;;;;;;;;109.00;91.33;;;;;3.31;100.00;100759.72;6304067;22;8807;-73
2022/02/08 17:55:05;;;;;;;;;121.33;88.00;;;;;3.35;100.00;100763.50;6307768;22;8891;-74
2022/02/08 17:58:02;;;;;;;;;119.00;96.00;;;;;3.30;100.00;100754.53;6308262;22;8779;-73
2022/02/08 18:00:57;;;;;;;;;96.33;69.00;;;;;3.23;100.00;100767.69;6308181;22;8791;-73
2022/02/08 18:03:53;;;;;;;;;98.33;74.00;;;;;3.38;100.00;100769.53;6308045;22;8898;-73
2022/02/08 18:06:48;;;;;;;;;88.67;63.67;;;;;3.18;100.00;100771.25;6307612;22;8818;-72
2022/02/08 18:09:44;;;;;;;;;105.67;78.00;;;;;3.29;100.00;100772.00;6308235;22;8887;-73
2022/02/08 18:12:43;;;;;;;;;88.00;68.33;;;;;3.32;100.00;100775.00;6308322;22;8818;-74
2022/02/08 18:15:39;;;;;;;;;91.67;68.33;;;;;3.27;100.00;100772.28;6305810;22;8787;-74
2022/02/08 18:18:43;;;;;;;;;96.00;70.00;;;;;3.20;100.00;100779.16;6308028;22;8779;-72
2022/02/08 18:21:48;;;;;;;;;97.00;75.00;;;;;3.27;100.00;100777.75;6306735;22;8783;-73
2022/02/08 18:57:30;;;;;;;;;97.33;69.33;;;;;2.83;100.00;100791.28;6243160;23;8856;-72
2022/02/08 19:19:56;;;;;;;;;82.00;62.33;;;;;2.82;99.03;100816.16;6289828;22;8834;-73
2022/02/08 19:22:53;;;;;;;;;89.33;67.00;;;;;2.75;98.92;100805.50;6307089;22;8787;-73
2022/02/08 19:25:48;;;;;;;;;91.33;67.00;;;;;2.64;99.19;100798.44;6307224;22;8767;-73
2022/02/08 19:28:45;;;;;;;;;73.00;60.00;;;;;2.50;99.79;100803.63;6307280;22;8834;-73
2022/02/08 19:31:45;;;;;;;;;63.33;48.67;;;;;2.57;99.22;100795.16;6307713;22;8784;-73
2022/02/08 19:34:45;;;;;;;;;65.00;49.00;;;;;2.40;99.32;100809.91;6307094;22;8795;-74
2022/02/08 19:37:41;;;;;;;;;81.67;56.67;;;;;2.37;99.04;100810.44;6307352;22;8787;-74
2022/02/08 19:40:37;;;;;;;;;69.33;43.33;;;;;2.43;99.45;100817.56;6307171;22;8825;-74
2022/02/08 19:43:33;;;;;;;;;104.33;72.67;;;;;2.40;99.51;100826.31;6307250;22;8806;-74
2022/02/08 19:46:29;;;;;;;;;117.00;86.67;;;;;2.45;99.63;100833.66;6325532;22;8787;-73
2022/02/08 19:49:26;;;;;;;;;106.33;80.00;;;;;2.58;99.51;100838.56;6306998;22;8868;-73
2022/02/08 19:52:23;;;;;;;;;93.00;72.33;;;;;2.54;98.97;100853.06;6306838;22;8803;-73
2022/02/08 19:58:24;;;;;;;;;80.33;63.00;;;;;2.57;97.82;100847.03;6307038;22;8803;-74
2022/02/08 20:01:31;;;;;;;;;58.33;51.33;;;;;2.59;97.41;100853.03;6307709;22;8791;-74
2022/02/08 20:04:27;;;;;;;;;77.00;60.67;;;;;2.46;97.83;100860.72;6306676;22;8817;-74
2022/02/08 20:07:23;;;;;;;;;44.00;36.33;;;;;2.49;97.96;100862.06;6307180;22;8779;-75
2022/02/08 20:10:19;;;;;;;;;29.67;29.67;;;;;2.49;98.46;100865.59;6306809;22;8898;-74
2022/02/08 20:13:14;;;;;;;;;68.33;47.00;;;;;2.45;98.06;100871.88;6306947;22;8861;-72
2022/02/08 20:16:10;;;;;;;;;62.67;49.33;;;;;2.43;97.99;100874.88;6306532;22;12201;-73
2022/02/08 20:19:08;;;;;;;;;42.33;41.33;;;;;2.52;97.50;100877.88;6306552;22;11531;-73
2022/02/08 20:22:06;;;;;;;;;50.33;45.67;;;;;2.37;97.98;100877.88;6306621;22;11616;-73
2022/02/08 20:25:08;;;;;;;;;34.67;29.67;;;;;2.39;98.16;100875.72;6306685;22;11498;-73
2022/02/08 20:28:11;;;;;;;;;58.33;47.00;;;;;2.42;98.20;100872.44;6306775;22;11538;-73
2022/02/08 20:31:07;;;;;;;;;55.33;43.67;;;;;2.37;98.76;100880.59;6305797;22;11531;-73
2022/02/08 20:34:03;;;;;;;;;68.67;55.33;;;;;2.42;98.54;100872.44;6306493;22;11518;-74
2022/02/08 20:36:59;;;;;;;;;71.00;56.33;;;;;2.38;99.05;100876.81;6306575;22;8767;-73
2022/02/08 20:39:55;;;;;;;;;72.67;55.00;;;;;2.43;98.96;100882.25;6306637;22;8795;-74
2022/02/08 20:42:55;;;;;;;;;25.67;25.67;;;;;2.38;99.19;100877.63;6306282;22;8783;-74
2022/02/08 20:45:51;;;;;;;;;84.33;68.67;;;;;2.41;99.41;100876.25;6306611;22;8771;-74
2022/02/08 20:48:48;;;;;;;;;38.33;32.67;;;;;2.34;99.44;100879.25;6306647;22;8767;-74
2022/02/08 20:51:45;;;;;;;;;49.33;45.33;;;;;2.32;99.57;100883.34;6306855;22;8899;-73
2022/02/08 20:54:49;;;;;;;;;79.33;58.67;;;;;2.39;99.69;100884.72;6304422;22;8816;-73
2022/02/08 20:57:52;;;;;;;;;62.67;53.00;;;;;2.26;100.00;100876.22;6306727;22;8818;-73
2022/02/08 21:00:50;;;;;;;;;45.00;39.67;;;;;2.17;99.48;100878.69;6306481;22;8784;-73
2022/02/08 21:04:00;;;;;;;;;36.67;34.67;;;;;2.15;99.84;100878.97;6306142;22;12253;-73
2022/02/08 21:06:58;;;;;;;;;61.00;50.00;;;;;2.18;99.35;100867.50;6306169;22;11605;-73
2022/02/08 21:09:53;;;;;;;;;49.67;46.67;;;;;2.16;99.56;100877.03;6306461;22;8815;-73